createdAt,value
2022-12-12T00:03:32.689Z,100.00
2022-12-12T00:06:21.474Z,100.00
2022-12-12T00:09:09.646Z,100.00
2022-12-12T00:11:56.729Z,100.00
2022-12-12T00:14:43.693Z,100.00
2022-12-12T00:17:30.745Z,100.00
2022-12-12T00:20:17.792Z,100.00
2022-12-12T00:23:04.836Z,100.00
2022-12-12T00:26:01.383Z,100.00
2022-12-12T00:28:49.078Z,100.00
2022-12-12T00:31:36.152Z,100.00
2022-12-12T00:34:23.326Z,100.00
2022-12-12T00:37:10.271Z,100.00
2022-12-12T00:39:57.523Z,100.00
2022-12-12T00:42:44.513Z,100.00
2022-12-12T00:45:31.569Z,100.00
2022-12-12T00:48:18.635Z,100.00
2022-12-12T00:51:09.298Z,100.00
2022-12-12T00:53:58.176Z,100.00
2022-12-12T00:56:45.234Z,100.00
2022-12-12T00:59:32.218Z,100.00
2022-12-12T01:02:23.530Z,100.00
2022-12-12T01:05:15.158Z,100.00
2022-12-12T01:08:02.529Z,100.00
2022-12-12T01:10:49.574Z,100.00
2022-12-12T01:13:36.662Z,100.00
2022-12-12T01:16:24.645Z,100.00
2022-12-12T01:19:11.774Z,100.00
2022-12-12T01:21:58.856Z,100.00
2022-12-12T01:24:45.866Z,100.00
2022-12-12T01:27:32.972Z,100.00
2022-12-12T01:30:22.696Z,100.00
2022-12-12T01:33:09.704Z,100.00
2022-12-12T01:35:57.069Z,100.00
2022-12-12T01:38:48.629Z,100.00
2022-12-12T01:41:36.181Z,100.00
2022-12-12T01:44:46.152Z,100.00
2022-12-12T01:47:33.265Z,100.00
2022-12-12T01:50:20.455Z,100.00
2022-12-12T01:53:08.084Z,100.00
2022-12-12T01:55:55.960Z,100.00
2022-12-12T01:58:45.980Z,100.00
2022-12-12T02:01:33.586Z,100.00
2022-12-12T02:04:22.433Z,100.00
2022-12-12T02:07:09.730Z,100.00
2022-12-12T02:09:56.782Z,100.00
2022-12-12T02:12:44.106Z,100.00
2022-12-12T02:15:41.551Z,100.00
2022-12-12T02:18:46.868Z,100.00
2022-12-12T02:21:37.006Z,100.00
2022-12-12T02:24:26.113Z,100.00
2022-12-12T02:27:28.362Z,100.00
2022-12-12T02:30:19.476Z,100.00
2022-12-12T02:33:24.929Z,100.00
2022-12-12T02:36:23.693Z,100.00
2022-12-12T02:39:37.669Z,100.00
2022-12-12T02:42:37.164Z,100.00
2022-12-12T02:45:30.108Z,100.00
2022-12-12T02:48:54.829Z,100.00
2022-12-12T02:51:44.484Z,100.00
2022-12-12T02:54:31.661Z,100.00
2022-12-12T02:57:22.195Z,100.00
2022-12-12T03:00:13.686Z,100.00
2022-12-12T03:03:34.355Z,100.00
2022-12-12T03:06:51.981Z,100.00
2022-12-12T03:09:57.587Z,100.00
2022-12-12T03:13:22.148Z,100.00
2022-12-12T03:16:27.479Z,100.00
2022-12-12T03:19:29.231Z,100.00
2022-12-12T03:22:43.830Z,100.00
2022-12-12T03:25:43.921Z,100.00
2022-12-12T03:28:39.817Z,100.00
2022-12-12T03:31:31.605Z,100.00
2022-12-12T03:34:26.456Z,100.00
2022-12-12T03:37:20.715Z,100.00
2022-12-12T03:40:24.970Z,100.00
2022-12-12T03:43:19.548Z,100.00
2022-12-12T03:46:15.825Z,100.00
2022-12-12T03:49:34.687Z,100.00
2022-12-12T03:52:30.977Z,100.00
2022-12-12T03:55:36.204Z,100.00
2022-12-12T03:58:43.352Z,100.00
2022-12-12T04:01:51.294Z,100.00
2022-12-12T04:04:48.319Z,100.00
2022-12-12T04:07:44.116Z,100.00
2022-12-12T04:10:57.455Z,100.00
2022-12-12T04:14:02.719Z,100.00
2022-12-12T04:17:00.851Z,100.00
2022-12-12T04:20:12.569Z,100.00
2022-12-12T04:23:16.099Z,100.00
2022-12-12T04:26:35.531Z,100.00
2022-12-12T04:29:26.579Z,100.00
2022-12-12T04:32:31.958Z,100.00
2022-12-12T04:35:18.929Z,100.00
2022-12-12T04:38:09.942Z,100.00
2022-12-12T04:40:59.334Z,100.00
2022-12-12T04:43:49.176Z,100.00
2022-12-12T04:46:38.289Z,100.00
2022-12-12T04:49:29.347Z,100.00
2022-12-12T04:52:18.715Z,100.00
2022-12-12T04:55:19.146Z,100.00
2022-12-12T04:58:07.481Z,100.00
2022-12-12T05:01:03.905Z,100.00
2022-12-12T05:03:55.694Z,100.00
2022-12-12T05:06:48.770Z,100.00
2022-12-12T05:09:37.155Z,100.00
2022-12-12T05:12:24.294Z,100.00
2022-12-12T05:15:12.086Z,100.00
2022-12-12T05:18:03.227Z,100.00
2022-12-12T05:20:50.654Z,100.00
2022-12-12T05:23:37.701Z,100.00
2022-12-12T05:26:27.521Z,100.00
2022-12-12T05:29:14.481Z,100.00
2022-12-12T05:32:01.541Z,100.00
2022-12-12T05:34:48.639Z,100.00
2022-12-12T05:37:36.351Z,100.00
2022-12-12T05:40:23.360Z,100.00
2022-12-12T05:43:10.410Z,100.00
2022-12-12T05:45:58.023Z,100.00
2022-12-12T05:48:50.423Z,100.00
2022-12-12T05:51:37.444Z,100.00
2022-12-12T05:54:24.463Z,100.00
2022-12-12T05:57:11.572Z,100.00
2022-12-12T05:59:58.592Z,100.00
2022-12-12T06:02:45.846Z,100.00
2022-12-12T06:05:32.989Z,100.00
2022-12-12T06:08:24.843Z,100.00
2022-12-12T06:11:12.727Z,100.00
2022-12-12T06:13:59.898Z,100.00
2022-12-12T06:16:46.968Z,100.00
2022-12-12T06:19:33.988Z,100.00
2022-12-12T06:22:21.059Z,100.00
2022-12-12T06:25:11.166Z,100.00
2022-12-12T06:28:00.213Z,100.00
2022-12-12T06:30:47.267Z,100.00
2022-12-12T06:33:35.812Z,100.00
2022-12-12T06:36:24.542Z,100.00
2022-12-12T06:39:11.617Z,100.00
2022-12-12T06:41:58.765Z,100.00
2022-12-12T06:44:45.886Z,100.00
2022-12-12T06:47:33.085Z,100.00
2022-12-12T06:50:23.691Z,100.00
2022-12-12T06:53:11.801Z,100.00
2022-12-12T06:55:58.908Z,100.00
2022-12-12T06:58:46.776Z,100.00
2022-12-12T07:01:33.946Z,100.00
2022-12-12T07:04:21.127Z,100.00
2022-12-12T07:07:08.259Z,100.00
2022-12-12T07:09:55.862Z,100.00
2022-12-12T07:12:46.628Z,100.00
2022-12-12T07:15:34.864Z,100.00
2022-12-12T07:18:22.058Z,100.00
2022-12-12T07:21:12.886Z,100.00
2022-12-12T07:23:59.949Z,100.00
2022-12-12T07:26:46.997Z,100.00
2022-12-12T07:29:34.554Z,100.00
2022-12-12T07:32:21.648Z,100.00
2022-12-12T07:35:09.132Z,100.00
2022-12-12T07:37:56.792Z,100.00
2022-12-12T07:40:43.788Z,100.00
2022-12-12T07:43:33.207Z,100.00
2022-12-12T07:46:24.042Z,100.00
2022-12-12T07:49:11.374Z,100.00
2022-12-12T07:51:58.549Z,100.00
2022-12-12T07:54:45.633Z,100.00
2022-12-12T07:57:33.096Z,100.00
2022-12-12T08:00:20.508Z,100.00
2022-12-12T08:03:07.528Z,100.00
2022-12-12T08:05:54.610Z,100.00
2022-12-12T08:08:41.809Z,100.00
2022-12-12T08:11:28.884Z,100.00
2022-12-12T08:14:16.045Z,100.00
2022-12-12T08:17:03.562Z,100.00
2022-12-12T08:19:51.328Z,100.00
2022-12-12T08:22:38.412Z,100.00
2022-12-12T08:25:25.455Z,100.00
2022-12-12T08:28:12.760Z,100.00
2022-12-12T08:30:59.867Z,100.00
2022-12-12T08:33:47.817Z,100.00
2022-12-12T08:36:35.920Z,100.00
2022-12-12T08:39:23.042Z,100.00
2022-12-12T08:42:10.047Z,100.00
2022-12-12T08:44:57.126Z,100.00
2022-12-12T08:47:44.165Z,100.00
2022-12-12T08:50:31.339Z,100.00
2022-12-12T08:53:18.408Z,100.00
2022-12-12T08:56:05.854Z,100.00
2022-12-12T08:58:53.059Z,100.00
2022-12-12T09:01:40.732Z,100.00
2022-12-12T09:04:27.867Z,100.00
2022-12-12T09:07:14.915Z,100.00
2022-12-12T09:10:02.519Z,100.00
2022-12-12T09:12:49.582Z,100.00
2022-12-12T09:15:38.161Z,100.00
2022-12-12T09:18:25.347Z,100.00
2022-12-12T09:21:12.355Z,100.00
2022-12-12T09:23:59.466Z,100.00
2022-12-12T09:26:46.564Z,100.00
2022-12-12T09:29:33.663Z,100.00
2022-12-12T09:32:24.765Z,100.00
2022-12-12T09:35:12.501Z,100.00
2022-12-12T09:37:59.799Z,100.00
2022-12-12T09:40:54.988Z,100.00
2022-12-12T09:44:03.207Z,99.52
2022-12-12T09:46:51.634Z,98.36
2022-12-12T09:49:51.201Z,98.89
2022-12-12T09:52:38.736Z,98.32
2022-12-12T09:55:43.705Z,100.00
2022-12-12T09:58:36.318Z,100.00
2022-12-12T10:01:34.279Z,100.00
2022-12-12T10:04:50.991Z,100.00
2022-12-12T10:07:59.433Z,100.00
2022-12-12T10:10:52.276Z,100.00
2022-12-12T10:13:39.726Z,100.00
2022-12-12T10:16:28.822Z,100.00
2022-12-12T10:19:27.842Z,100.00
2022-12-12T10:22:50.888Z,100.00
2022-12-12T10:25:49.979Z,100.00
2022-12-12T10:28:37.000Z,100.00
2022-12-12T10:31:35.971Z,100.00
2022-12-12T10:34:44.815Z,99.88
2022-12-12T10:37:38.727Z,100.00
2022-12-12T10:40:47.252Z,99.57
2022-12-12T10:43:42.988Z,100.00
2022-12-12T10:46:58.989Z,97.60
2022-12-12T10:49:46.091Z,98.90
2022-12-12T10:52:33.731Z,96.39
2022-12-12T10:55:44.029Z,98.28
2022-12-12T10:58:40.700Z,100.00
2022-12-12T11:02:08.599Z,100.00
2022-12-12T11:04:45.628Z,100.00
2022-12-12T11:07:40.892Z,100.00
2022-12-12T11:10:34.823Z,100.00
2022-12-12T11:13:21.965Z,100.00
2022-12-12T11:16:15.637Z,100.00
2022-12-12T11:19:16.987Z,100.00
2022-12-12T11:22:04.942Z,100.00
2022-12-12T11:24:53.116Z,100.00
2022-12-12T11:27:41.651Z,99.45
2022-12-12T11:30:43.019Z,100.00
2022-12-12T11:33:38.442Z,100.00
2022-12-12T11:36:36.208Z,100.00
2022-12-12T11:39:28.905Z,100.00
2022-12-12T11:42:15.916Z,100.00
2022-12-12T11:45:09.024Z,98.91
2022-12-12T11:47:56.047Z,99.70
2022-12-12T11:50:46.637Z,100.00
2022-12-12T11:53:38.540Z,96.80
2022-12-12T11:56:44.230Z,96.80
2022-12-12T11:59:46.166Z,93.36
2022-12-12T12:03:07.205Z,97.84
2022-12-12T12:06:15.675Z,98.61
2022-12-12T12:09:02.767Z,97.26
2022-12-12T12:12:37.327Z,97.67
2022-12-12T12:16:01.840Z,94.20
2022-12-12T12:18:58.563Z,96.66
2022-12-12T12:22:13.246Z,96.85
2022-12-12T12:25:21.629Z,97.35
2022-12-12T12:28:23.857Z,98.53
2022-12-12T12:31:20.307Z,98.82
2022-12-12T12:34:30.417Z,100.00
2022-12-12T12:37:51.920Z,98.80
2022-12-12T12:40:41.599Z,100.00
2022-12-12T12:43:47.931Z,100.00
2022-12-12T12:46:58.493Z,100.00
2022-12-12T12:50:02.008Z,100.00
2022-12-12T12:52:57.201Z,100.00
2022-12-12T12:55:51.107Z,100.00
2022-12-12T12:58:44.929Z,100.00
2022-12-12T13:01:42.796Z,99.59
2022-12-12T13:04:37.211Z,98.46
2022-12-12T13:07:48.432Z,94.88
2022-12-12T13:10:41.129Z,96.66
2022-12-12T13:13:34.500Z,95.06
2022-12-12T13:16:26.340Z,94.45
2022-12-12T13:19:31.715Z,97.10
2022-12-12T13:22:30.273Z,96.32
2022-12-12T13:25:28.876Z,97.63
2022-12-12T13:28:20.248Z,100.00
2022-12-12T13:31:27.311Z,99.27
2022-12-12T13:34:23.361Z,100.00
2022-12-12T13:37:17.424Z,100.00
2022-12-12T13:40:08.147Z,100.00
2022-12-12T13:42:55.180Z,100.00
2022-12-12T13:45:44.482Z,100.00
2022-12-12T13:48:46.567Z,100.00
2022-12-12T13:51:40.835Z,100.00
2022-12-12T13:54:27.972Z,100.00
2022-12-12T13:57:26.162Z,100.00
2022-12-12T14:00:18.094Z,100.00
2022-12-12T14:03:10.921Z,99.51
2022-12-12T14:06:10.815Z,98.28
2022-12-12T14:08:58.768Z,99.54
2022-12-12T14:11:46.017Z,99.28
2022-12-12T14:14:36.745Z,98.25
2022-12-12T14:17:26.914Z,98.43
2022-12-12T14:20:31.603Z,98.63
2022-12-12T14:23:29.220Z,99.24
2022-12-12T14:26:28.724Z,100.00
2022-12-12T14:29:15.777Z,98.84
2022-12-12T14:32:06.143Z,97.41
2022-12-12T14:35:09.460Z,99.84
2022-12-12T14:38:18.019Z,97.83
2022-12-12T14:41:13.518Z,97.52
2022-12-12T14:44:35.640Z,96.66
2022-12-12T14:47:16.417Z,100.00
2022-12-12T14:50:11.312Z,100.00
2022-12-12T14:52:59.010Z,100.00
2022-12-12T14:55:52.721Z,100.00
2022-12-12T14:58:56.548Z,100.00
2022-12-12T15:01:53.633Z,100.00
2022-12-12T15:04:44.438Z,100.00
2022-12-12T15:07:39.147Z,100.00
2022-12-12T15:10:30.937Z,100.00
2022-12-12T15:13:21.285Z,100.00
2022-12-12T15:16:08.539Z,100.00
2022-12-12T15:18:57.496Z,100.00
2022-12-12T15:21:46.301Z,100.00
2022-12-12T15:24:38.461Z,100.00
2022-12-12T15:27:34.093Z,100.00
2022-12-12T15:30:37.612Z,100.00
2022-12-12T15:33:26.955Z,100.00
2022-12-12T15:36:28.055Z,100.00
2022-12-12T15:39:17.135Z,100.00
2022-12-12T15:42:05.193Z,100.00
2022-12-12T15:44:52.450Z,100.00
2022-12-12T15:47:39.573Z,100.00
2022-12-12T15:50:41.778Z,100.00
2022-12-12T15:53:50.344Z,100.00
2022-12-12T15:56:37.388Z,100.00
2022-12-12T15:59:32.460Z,100.00
2022-12-12T16:02:26.256Z,100.00
2022-12-12T16:05:19.386Z,100.00
2022-12-12T16:08:32.203Z,100.00
2022-12-12T16:11:38.296Z,100.00
2022-12-12T16:14:27.239Z,100.00
2022-12-12T16:17:22.137Z,100.00
2022-12-12T16:20:14.659Z,100.00
2022-12-12T16:23:28.388Z,100.00
2022-12-12T16:26:15.371Z,100.00
2022-12-12T16:29:04.060Z,100.00
2022-12-12T16:31:51.749Z,100.00
2022-12-12T16:34:38.793Z,100.00
2022-12-12T16:37:25.842Z,100.00
2022-12-12T16:40:15.031Z,100.00
2022-12-12T16:43:09.363Z,100.00
2022-12-12T16:45:58.458Z,100.00
2022-12-12T16:48:45.675Z,100.00
2022-12-12T16:51:35.305Z,100.00
2022-12-12T16:54:22.475Z,100.00
2022-12-12T16:57:09.621Z,100.00
2022-12-12T16:59:56.747Z,100.00
2022-12-12T17:02:44.413Z,100.00
2022-12-12T17:05:32.637Z,100.00
2022-12-12T17:08:19.913Z,100.00
2022-12-12T17:11:09.501Z,100.00
2022-12-12T17:13:57.914Z,100.00
2022-12-12T17:16:45.092Z,100.00
2022-12-12T17:19:32.716Z,100.00
2022-12-12T17:22:19.804Z,100.00
2022-12-12T17:25:08.425Z,100.00
2022-12-12T17:27:55.623Z,100.00
2022-12-12T17:30:43.423Z,100.00
2022-12-12T17:33:30.660Z,100.00
2022-12-12T17:36:18.801Z,100.00
2022-12-12T17:39:06.001Z,100.00
2022-12-12T17:41:53.368Z,100.00
2022-12-12T17:44:40.480Z,100.00
2022-12-12T17:47:30.371Z,100.00
2022-12-12T17:50:17.996Z,100.00
2022-12-12T17:53:05.234Z,100.00
2022-12-12T17:56:01.260Z,100.00
2022-12-12T17:58:55.804Z,100.00
2022-12-12T18:01:43.323Z,100.00
2022-12-12T18:04:37.138Z,100.00
2022-12-12T18:07:24.761Z,100.00
2022-12-12T18:10:12.658Z,100.00
2022-12-12T18:13:01.599Z,100.00
2022-12-12T18:15:59.703Z,100.00
2022-12-12T18:18:47.308Z,100.00
2022-12-12T18:22:00.418Z,100.00
2022-12-12T18:24:48.574Z,100.00
2022-12-12T18:27:38.159Z,100.00
2022-12-12T18:30:25.885Z,100.00
2022-12-12T18:33:13.483Z,100.00
2022-12-12T18:36:10.108Z,100.00
2022-12-12T18:38:59.844Z,100.00
2022-12-12T18:41:47.298Z,100.00
2022-12-12T18:44:34.710Z,100.00
2022-12-12T18:47:24.398Z,100.00
2022-12-12T18:50:12.482Z,100.00
2022-12-12T18:53:00.877Z,100.00
2022-12-12T18:55:48.229Z,100.00
2022-12-12T18:58:37.002Z,100.00
2022-12-12T19:01:27.423Z,100.00
2022-12-12T19:04:21.194Z,100.00
2022-12-12T19:07:12.276Z,100.00
2022-12-12T19:10:02.876Z,100.00
2022-12-12T19:12:50.808Z,100.00
2022-12-12T19:15:38.837Z,100.00
2022-12-12T19:18:26.251Z,100.00
2022-12-12T19:21:20.362Z,100.00
2022-12-12T19:24:10.858Z,100.00
2022-12-12T19:26:58.407Z,100.00
2022-12-12T19:29:49.170Z,100.00
2022-12-12T19:32:37.000Z,100.00
2022-12-12T19:35:25.167Z,100.00
2022-12-12T19:38:13.090Z,100.00
2022-12-12T19:41:07.949Z,100.00
2022-12-12T19:44:00.161Z,100.00
2022-12-12T19:46:48.221Z,100.00
2022-12-12T19:49:36.226Z,100.00
2022-12-12T19:52:24.293Z,100.00
2022-12-12T19:55:12.087Z,100.00
2022-12-12T19:58:01.059Z,100.00
2022-12-12T20:00:51.148Z,100.00
2022-12-12T20:03:39.178Z,100.00
2022-12-12T20:06:28.995Z,100.00
2022-12-12T20:09:23.179Z,100.00
2022-12-12T20:12:11.269Z,100.00
2022-12-12T20:15:00.833Z,100.00
2022-12-12T20:17:48.779Z,100.00
2022-12-12T20:20:36.071Z,100.00
2022-12-12T20:23:24.097Z,100.00
2022-12-12T20:26:17.638Z,100.00
2022-12-12T20:29:07.428Z,100.00
2022-12-12T20:31:55.371Z,100.00
2022-12-12T20:34:43.315Z,100.00
2022-12-12T20:37:32.440Z,100.00
2022-12-12T20:40:20.259Z,100.00
2022-12-12T20:43:10.642Z,100.00
2022-12-12T20:46:02.662Z,100.00
2022-12-12T20:48:51.288Z,100.00
2022-12-12T20:51:55.205Z,100.00
2022-12-12T20:54:44.179Z,100.00
2022-12-12T20:57:32.962Z,100.00
2022-12-12T21:00:20.899Z,100.00
2022-12-12T21:03:08.358Z,100.00
2022-12-12T21:05:55.478Z,100.00
2022-12-12T21:08:42.863Z,100.00
2022-12-12T21:11:30.593Z,100.00
2022-12-12T21:14:18.568Z,100.00
2022-12-12T21:17:06.037Z,100.00
2022-12-12T21:19:53.346Z,100.00
2022-12-12T21:22:40.534Z,100.00
2022-12-12T21:25:27.740Z,100.00
2022-12-12T21:28:14.914Z,100.00
2022-12-12T21:31:02.008Z,100.00
2022-12-12T21:33:49.154Z,100.00
2022-12-12T21:36:36.319Z,100.00
2022-12-12T21:39:26.880Z,100.00
2022-12-12T21:42:14.433Z,100.00
2022-12-12T21:45:01.471Z,100.00
2022-12-12T21:47:48.542Z,100.00
2022-12-12T21:50:37.622Z,100.00
2022-12-12T21:53:37.892Z,100.00
2022-12-12T21:56:24.960Z,100.00
2022-12-12T21:59:13.538Z,100.00
2022-12-12T22:02:00.930Z,100.00
2022-12-12T22:04:48.119Z,100.00
2022-12-12T22:07:35.317Z,100.00
2022-12-12T22:10:22.411Z,100.00
2022-12-12T22:13:09.452Z,100.00
2022-12-12T22:16:01.245Z,100.00
2022-12-12T22:18:50.363Z,100.00
2022-12-12T22:21:37.693Z,100.00
2022-12-12T22:24:26.121Z,100.00
2022-12-12T22:27:13.207Z,100.00
2022-12-12T22:30:00.227Z,100.00
2022-12-12T22:32:47.274Z,100.00
2022-12-12T22:35:34.364Z,100.00
2022-12-12T22:38:21.438Z,100.00
2022-12-12T22:41:08.758Z,100.00
2022-12-12T22:44:00.924Z,100.00
2022-12-12T22:46:49.992Z,100.00
2022-12-12T22:49:37.126Z,100.00
2022-12-12T22:52:25.577Z,100.00
2022-12-12T22:55:12.888Z,100.00
2022-12-12T22:58:00.202Z,100.00
2022-12-12T23:00:47.331Z,100.00
2022-12-12T23:03:34.637Z,100.00
2022-12-12T23:06:32.986Z,100.00
2022-12-12T23:09:22.700Z,100.00
2022-12-12T23:12:09.771Z,100.00
2022-12-12T23:14:56.838Z,100.00
2022-12-12T23:17:43.906Z,100.00
2022-12-12T23:20:31.002Z,100.00
2022-12-12T23:23:18.038Z,100.00
2022-12-12T23:26:10.429Z,100.00
2022-12-12T23:28:59.242Z,100.00
2022-12-12T23:31:47.259Z,100.00
2022-12-12T23:34:34.709Z,100.00
2022-12-12T23:37:22.040Z,100.00
2022-12-12T23:40:09.973Z,100.00
2022-12-12T23:42:57.040Z,100.00
2022-12-12T23:45:44.318Z,100.00
2022-12-12T23:48:32.332Z,100.00
2022-12-12T23:51:19.370Z,100.00
2022-12-12T23:54:09.971Z,100.00
2022-12-12T23:56:57.043Z,100.00
2022-12-12T23:59:44.134Z,100.00
